createdAt,value
2022-08-02T00:00:35.025Z,16.21
2022-08-02T00:03:01.930Z,16.05
2022-08-02T00:05:28.928Z,16.11
2022-08-02T00:07:55.779Z,16.00
2022-08-02T00:10:22.500Z,15.96
2022-08-02T00:12:49.573Z,15.94
2022-08-02T00:15:16.648Z,15.73
2022-08-02T00:17:44.536Z,15.78
2022-08-02T00:20:13.601Z,15.61
2022-08-02T00:22:40.504Z,15.49
2022-08-02T00:25:07.746Z,15.37
2022-08-02T00:27:34.685Z,15.17
2022-08-02T00:30:01.665Z,15.04
2022-08-02T00:32:28.684Z,14.93
2022-08-02T00:34:55.548Z,14.94
2022-08-02T00:37:22.390Z,14.90
2022-08-02T00:39:49.313Z,14.83
2022-08-02T00:42:16.261Z,14.87
2022-08-02T00:44:43.337Z,14.87
2022-08-02T00:47:10.412Z,14.75
2022-08-02T00:49:37.752Z,14.77
2022-08-02T00:52:05.331Z,14.60
2022-08-02T00:54:32.181Z,14.56
2022-08-02T00:56:59.085Z,14.57
2022-08-02T00:59:25.994Z,14.56
2022-08-02T01:01:55.683Z,14.50
2022-08-02T01:04:30.728Z,14.40
2022-08-02T01:07:12.600Z,14.32
2022-08-02T01:09:46.844Z,14.33
2022-08-02T01:12:14.336Z,14.27
2022-08-02T01:14:48.375Z,14.23
2022-08-02T01:17:20.961Z,14.21
2022-08-02T01:20:18.808Z,14.21
2022-08-02T01:23:23.685Z,14.18
2022-08-02T01:26:08.838Z,14.12
2022-08-02T01:28:56.800Z,14.11
2022-08-02T01:31:38.968Z,14.13
2022-08-02T01:34:34.278Z,14.01
2022-08-02T01:37:07.006Z,13.92
2022-08-02T01:39:39.073Z,13.93
2022-08-02T01:42:06.720Z,13.88
2022-08-02T01:44:36.748Z,13.95
2022-08-02T01:47:09.433Z,14.01
2022-08-02T01:49:38.612Z,14.05
2022-08-02T01:52:21.800Z,14.04
2022-08-02T01:55:18.563Z,14.00
2022-08-02T01:58:03.286Z,13.95
2022-08-02T02:00:33.750Z,13.91
2022-08-02T02:03:02.412Z,13.79
2022-08-02T02:05:32.318Z,13.80
2022-08-02T02:08:05.988Z,13.85
2022-08-02T02:10:35.737Z,13.90
2022-08-02T02:13:06.788Z,13.84
2022-08-02T02:15:35.546Z,13.82
2022-08-02T02:18:12.652Z,13.80
2022-08-02T02:20:42.511Z,13.56
2022-08-02T02:23:10.558Z,13.68
2022-08-02T02:25:41.838Z,13.56
2022-08-02T02:28:22.378Z,13.55
2022-08-02T02:30:53.420Z,13.44
2022-08-02T02:33:27.718Z,13.35
2022-08-02T02:35:58.287Z,13.34
2022-08-02T02:38:30.696Z,13.31
2022-08-02T02:41:00.926Z,13.25
2022-08-02T02:43:31.161Z,13.30
2022-08-02T02:45:58.730Z,13.23
2022-08-02T02:48:27.112Z,13.17
2022-08-02T02:50:54.584Z,13.08
2022-08-02T02:53:23.084Z,12.92
2022-08-02T02:56:01.687Z,12.98
2022-08-02T02:58:31.254Z,13.00
2022-08-02T03:01:16.556Z,12.97
2022-08-02T03:03:45.236Z,12.88
2022-08-02T03:06:15.806Z,12.77
2022-08-02T03:08:43.512Z,12.82
2022-08-02T03:11:11.264Z,12.85
2022-08-02T03:13:39.262Z,12.88
2022-08-02T03:16:06.704Z,12.83
2022-08-02T03:18:40.564Z,12.84
2022-08-02T03:21:12.974Z,12.80
2022-08-02T03:23:42.379Z,12.84
2022-08-02T03:26:10.382Z,12.84
2022-08-02T03:28:37.434Z,12.80
2022-08-02T03:31:04.627Z,12.85
2022-08-02T03:33:32.428Z,12.89
2022-08-02T03:36:11.665Z,12.79
2022-08-02T03:38:39.332Z,12.83
2022-08-02T03:41:07.675Z,12.92
2022-08-02T03:43:36.805Z,12.89
2022-08-02T03:46:05.255Z,13.00
2022-08-02T03:48:33.846Z,12.95
2022-08-02T03:51:02.625Z,12.99
2022-08-02T03:53:30.232Z,13.09
2022-08-02T03:55:57.763Z,13.10
2022-08-02T03:58:24.900Z,13.17
2022-08-02T04:00:57.637Z,13.20
2022-08-02T04:03:27.935Z,13.23
2022-08-02T04:06:03.230Z,13.30
2022-08-02T04:08:35.527Z,13.42
2022-08-02T04:11:23.133Z,13.54
2022-08-02T04:13:50.415Z,13.76
2022-08-02T04:16:22.993Z,13.91
2022-08-02T04:18:58.425Z,14.07
2022-08-02T04:21:48.970Z,14.14
2022-08-02T04:24:18.635Z,14.25
2022-08-02T04:26:48.986Z,14.44
2022-08-02T04:29:18.718Z,14.47
2022-08-02T04:31:45.978Z,14.64
2022-08-02T04:34:15.486Z,14.75
2022-08-02T04:36:43.513Z,14.85
2022-08-02T04:39:10.963Z,14.90
2022-08-02T04:41:43.918Z,14.96
2022-08-02T04:44:11.905Z,15.09
2022-08-02T04:46:39.819Z,14.97
2022-08-02T04:49:06.899Z,15.17
2022-08-02T04:51:38.439Z,15.34
2022-08-02T04:54:09.996Z,15.44
2022-08-02T04:56:38.752Z,15.58
2022-08-02T04:59:06.592Z,15.63
2022-08-02T05:01:33.394Z,15.74
2022-08-02T05:04:00.320Z,15.88
2022-08-02T05:06:27.318Z,15.93
2022-08-02T05:08:54.273Z,15.97
2022-08-02T05:11:34.538Z,16.07
2022-08-02T05:14:05.853Z,16.13
2022-08-02T05:16:33.002Z,16.34
2022-08-02T05:19:01.310Z,16.49
2022-08-02T05:21:29.305Z,16.60
2022-08-02T05:23:56.111Z,16.67
2022-08-02T05:26:22.842Z,16.63
2022-08-02T05:28:49.845Z,16.74
2022-08-02T05:31:16.685Z,16.83
2022-08-02T05:33:43.451Z,16.88
2022-08-02T05:36:10.333Z,16.92
2022-08-02T05:38:37.966Z,16.88
2022-08-02T05:41:08.084Z,16.80
2022-08-02T05:43:34.894Z,17.08
2022-08-02T05:46:01.705Z,17.18
2022-08-02T05:48:31.978Z,17.36
2022-08-02T05:51:10.242Z,17.44
2022-08-02T05:53:45.316Z,17.47
2022-08-02T05:56:31.338Z,17.59
2022-08-02T05:59:18.526Z,17.58
2022-08-02T06:01:48.586Z,17.75
2022-08-02T06:04:25.192Z,17.95
2022-08-02T06:06:56.062Z,18.05
2022-08-02T06:09:26.618Z,18.08
2022-08-02T06:12:01.778Z,18.19
2022-08-02T06:14:33.022Z,18.35
2022-08-02T06:17:04.795Z,18.39
2022-08-02T06:19:46.906Z,18.62
2022-08-02T06:22:37.762Z,18.58
2022-08-02T06:25:05.789Z,18.88
2022-08-02T06:27:34.031Z,19.09
2022-08-02T06:30:02.452Z,19.29
2022-08-02T06:32:29.157Z,19.36
2022-08-02T06:34:56.667Z,19.54
2022-08-02T06:37:44.912Z,19.62
2022-08-02T06:40:27.978Z,19.76
2022-08-02T06:43:25.904Z,19.88
2022-08-02T06:45:52.794Z,19.99
2022-08-02T06:48:19.626Z,20.04
2022-08-02T06:50:46.511Z,20.16
2022-08-02T06:53:13.583Z,20.29
2022-08-02T06:55:43.815Z,20.31
2022-08-02T06:58:12.785Z,20.03
2022-08-02T07:00:40.953Z,20.47
2022-08-02T07:03:07.748Z,20.58
2022-08-02T07:05:35.071Z,20.75
2022-08-02T07:08:02.950Z,20.87
2022-08-02T07:10:29.769Z,21.04
2022-08-02T07:12:59.744Z,21.20
2022-08-02T07:15:27.150Z,21.43
2022-08-02T07:17:55.405Z,21.71
2022-08-02T07:20:22.179Z,21.85
2022-08-02T07:22:49.024Z,22.04
2022-08-02T07:25:16.267Z,21.97
2022-08-02T07:27:43.372Z,21.93
2022-08-02T07:30:10.758Z,22.26
2022-08-02T07:32:38.172Z,22.48
2022-08-02T07:35:07.523Z,22.56
2022-08-02T07:37:55.417Z,22.69
2022-08-02T07:40:24.397Z,22.80
2022-08-02T07:42:56.448Z,23.06
2022-08-02T07:45:25.402Z,23.19
2022-08-02T07:47:52.805Z,23.19
2022-08-02T07:50:21.150Z,23.33
2022-08-02T07:52:48.165Z,23.39
2022-08-02T07:55:17.931Z,23.64
2022-08-02T07:57:46.985Z,23.71
2022-08-02T08:00:16.418Z,23.77
2022-08-02T08:02:44.133Z,23.82
2022-08-02T08:05:12.116Z,23.96
2022-08-02T08:07:39.532Z,24.13
2022-08-02T08:10:07.627Z,24.23
2022-08-02T08:12:34.708Z,24.47
2022-08-02T08:15:01.553Z,24.48
2022-08-02T08:17:28.513Z,24.51
2022-08-02T08:19:55.451Z,24.41
2022-08-02T08:22:23.144Z,24.38
2022-08-02T08:24:50.375Z,24.24
2022-08-02T08:27:18.414Z,24.43
2022-08-02T08:29:46.471Z,24.60
2022-08-02T08:32:17.863Z,24.48
2022-08-02T08:34:49.178Z,24.37
2022-08-02T08:37:16.511Z,24.60
2022-08-02T08:39:57.065Z,24.69
2022-08-02T08:42:27.534Z,25.14
2022-08-02T08:44:56.699Z,25.38
2022-08-02T08:47:33.554Z,25.48
2022-08-02T08:50:06.883Z,25.58
2022-08-02T08:52:41.630Z,25.44
2022-08-02T08:55:13.945Z,25.24
2022-08-02T08:57:42.664Z,25.60
2022-08-02T09:00:13.576Z,26.10
2022-08-02T09:02:42.746Z,26.34
2022-08-02T09:05:15.743Z,26.31
2022-08-02T09:07:45.039Z,26.42
2022-08-02T09:10:41.271Z,26.75
2022-08-02T09:13:38.665Z,26.91
2022-08-02T09:16:12.138Z,26.83
2022-08-02T09:18:46.353Z,27.14
2022-08-02T09:21:17.104Z,27.12
2022-08-02T09:23:47.760Z,27.21
2022-08-02T09:26:19.318Z,27.38
2022-08-02T09:28:50.305Z,27.80
2022-08-02T09:31:22.921Z,27.89
2022-08-02T09:33:54.701Z,27.74
2022-08-02T09:36:22.374Z,27.61
2022-08-02T09:39:13.199Z,27.67
2022-08-02T09:41:42.258Z,27.49
2022-08-02T09:44:15.564Z,27.50
2022-08-02T09:46:46.906Z,27.76
2022-08-02T09:49:19.610Z,27.81
2022-08-02T09:51:49.724Z,27.96
2022-08-02T09:54:19.191Z,28.14
2022-08-02T09:56:51.824Z,28.45
2022-08-02T09:59:21.510Z,28.63
2022-08-02T10:01:51.707Z,29.21
2022-08-02T10:04:30.917Z,29.71
2022-08-02T10:07:00.019Z,30.18
2022-08-02T10:09:28.998Z,30.44
2022-08-02T10:11:56.899Z,30.21
2022-08-02T10:14:24.118Z,30.38
2022-08-02T10:16:53.547Z,30.44
2022-08-02T10:19:59.564Z,30.58
2022-08-02T10:22:13.716Z,30.59
2022-08-02T10:24:48.127Z,30.17
2022-08-02T10:27:20.348Z,29.78
2022-08-02T10:29:55.641Z,29.75
2022-08-02T10:32:39.923Z,29.67
2022-08-02T10:35:19.578Z,29.29
2022-08-02T10:38:07.977Z,29.03
2022-08-02T10:40:52.835Z,28.89
2022-08-02T10:43:31.727Z,28.85
2022-08-02T10:46:34.650Z,29.66
2022-08-02T10:49:01.488Z,30.02
2022-08-02T10:51:56.467Z,29.79
2022-08-02T10:54:47.856Z,29.33
2022-08-02T10:57:37.628Z,28.88
2022-08-02T11:00:20.906Z,29.03
2022-08-02T11:02:53.223Z,29.52
2022-08-02T11:05:42.250Z,29.59
2022-08-02T11:08:22.685Z,30.22
2022-08-02T11:10:49.693Z,30.01
2022-08-02T11:13:20.031Z,29.88
2022-08-02T11:16:11.265Z,30.63
2022-08-02T11:18:50.532Z,30.82
2022-08-02T11:21:25.435Z,30.53
2022-08-02T11:23:53.267Z,30.35
2022-08-02T11:26:29.284Z,30.27
2022-08-02T11:29:00.696Z,30.25
2022-08-02T11:31:28.522Z,30.44
2022-08-02T11:33:55.847Z,31.11
2022-08-02T11:36:24.678Z,31.47
2022-08-02T11:39:09.665Z,31.53
2022-08-02T11:41:45.867Z,31.61
2022-08-02T11:44:13.998Z,31.60
2022-08-02T11:46:41.120Z,31.92
2022-08-02T11:49:15.749Z,31.57
2022-08-02T11:51:59.620Z,31.53
2022-08-02T11:54:32.525Z,31.40
2022-08-02T11:57:20.343Z,31.39
2022-08-02T11:59:52.693Z,31.58
2022-08-02T12:02:27.057Z,31.65
2022-08-02T12:05:08.943Z,31.81
2022-08-02T12:07:46.144Z,31.30
2022-08-02T12:10:19.514Z,31.04
2022-08-02T12:12:54.283Z,31.55
2022-08-02T12:15:42.084Z,31.22
2022-08-02T12:18:29.459Z,31.53
2022-08-02T12:20:56.809Z,31.79
2022-08-02T12:23:24.661Z,31.15
2022-08-02T12:26:05.552Z,31.16
2022-08-02T12:28:41.091Z,31.32
2022-08-02T12:31:10.766Z,31.29
2022-08-02T12:33:51.260Z,30.82
2022-08-02T12:36:23.256Z,30.41
2022-08-02T12:38:58.371Z,31.22
2022-08-02T12:41:31.500Z,32.06
2022-08-02T12:44:00.039Z,32.12
2022-08-02T12:46:26.918Z,31.72
2022-08-02T12:49:15.212Z,31.49
2022-08-02T12:51:51.036Z,31.36
2022-08-02T12:54:38.969Z,31.10
2022-08-02T12:57:13.430Z,30.85
2022-08-02T12:59:42.183Z,30.83
2022-08-02T13:02:14.620Z,30.85
2022-08-02T13:04:50.036Z,31.55
2022-08-02T13:07:18.685Z,32.72
2022-08-02T13:09:46.890Z,33.64
2022-08-02T13:12:14.599Z,34.72
2022-08-02T13:14:42.739Z,34.92
2022-08-02T13:17:12.747Z,34.77
2022-08-02T13:19:40.959Z,34.46
2022-08-02T13:22:08.649Z,34.33
2022-08-02T13:24:40.617Z,35.19
2022-08-02T13:27:22.401Z,36.01
2022-08-02T13:29:50.381Z,36.67
2022-08-02T13:32:17.787Z,36.78
2022-08-02T13:34:44.824Z,36.27
2022-08-02T13:37:11.772Z,35.41
2022-08-02T13:39:38.834Z,34.06
2022-08-02T13:42:07.061Z,33.50
2022-08-02T13:44:34.878Z,33.58
2022-08-02T13:47:02.541Z,33.22
2022-08-02T13:49:51.627Z,32.95
2022-08-02T13:52:18.867Z,32.57
2022-08-02T13:54:45.966Z,33.00
2022-08-02T13:57:13.008Z,33.39
2022-08-02T13:59:57.799Z,33.40
2022-08-02T14:02:28.164Z,33.85
2022-08-02T14:04:55.343Z,34.34
2022-08-02T14:07:22.532Z,35.38
2022-08-02T14:09:49.388Z,36.30
2022-08-02T14:12:16.882Z,37.34
2022-08-02T14:14:44.014Z,37.18
2022-08-02T14:17:12.432Z,37.30
2022-08-02T14:19:40.025Z,37.87
2022-08-02T14:22:21.305Z,37.72
2022-08-02T14:24:48.411Z,38.28
2022-08-02T14:27:15.943Z,37.91
2022-08-02T14:29:42.864Z,37.13
2022-08-02T14:32:10.110Z,36.57
2022-08-02T14:34:37.229Z,36.57
2022-08-02T14:37:05.644Z,36.59
2022-08-02T14:39:43.207Z,36.37
2022-08-02T14:42:19.265Z,36.87
2022-08-02T14:44:46.013Z,37.22
2022-08-02T14:47:12.950Z,37.90
2022-08-02T14:49:42.311Z,38.34
2022-08-02T14:52:10.480Z,38.55
2022-08-02T14:54:37.416Z,38.15
2022-08-02T14:57:04.602Z,37.45
2022-08-02T14:59:31.585Z,36.18
2022-08-02T15:01:59.164Z,35.59
2022-08-02T15:04:26.422Z,34.54
2022-08-02T15:06:53.816Z,33.42
2022-08-02T15:09:21.726Z,33.75
2022-08-02T15:11:49.563Z,34.98
2022-08-02T15:14:20.443Z,36.25
2022-08-02T15:16:58.021Z,37.22
2022-08-02T15:19:56.750Z,37.63
2022-08-02T15:22:19.045Z,38.57
2022-08-02T15:24:47.937Z,38.87
2022-08-02T15:27:16.558Z,38.83
2022-08-02T15:29:45.050Z,39.31
2022-08-02T15:32:13.356Z,39.50
2022-08-02T15:34:40.760Z,39.46
2022-08-02T15:37:09.040Z,38.31
2022-08-02T15:39:36.185Z,37.41
2022-08-02T15:42:03.543Z,37.70
2022-08-02T15:44:30.430Z,38.85
2022-08-02T15:46:57.296Z,39.17
2022-08-02T15:49:25.290Z,38.58
2022-08-02T15:51:53.104Z,38.35
2022-08-02T15:54:20.159Z,38.33
2022-08-02T15:56:47.135Z,38.30
2022-08-02T15:59:14.228Z,38.48
2022-08-02T16:01:46.518Z,38.53
2022-08-02T16:04:14.806Z,37.31
2022-08-02T16:06:42.031Z,36.48
2022-08-02T16:09:09.143Z,35.53
2022-08-02T16:11:36.168Z,34.84
2022-08-02T16:14:02.901Z,34.05
2022-08-02T16:16:32.706Z,33.06
2022-08-02T16:19:47.082Z,32.40
2022-08-02T16:21:48.368Z,32.95
2022-08-02T16:24:15.088Z,33.51
2022-08-02T16:26:42.461Z,33.90
2022-08-02T16:29:09.626Z,33.98
2022-08-02T16:31:41.619Z,33.52
2022-08-02T16:34:09.594Z,32.81
2022-08-02T16:36:36.593Z,32.87
2022-08-02T16:39:03.810Z,32.92
2022-08-02T16:41:50.861Z,32.85
2022-08-02T16:44:17.478Z,32.32
2022-08-02T16:46:44.951Z,31.62
2022-08-02T16:49:12.986Z,31.09
2022-08-02T16:51:59.243Z,30.45
2022-08-02T16:54:26.564Z,29.91
2022-08-02T16:56:53.444Z,29.54
2022-08-02T16:59:20.206Z,29.21
2022-08-02T17:02:11.178Z,29.12
2022-08-02T17:04:39.080Z,29.25
2022-08-02T17:07:11.119Z,29.40
2022-08-02T17:10:03.900Z,29.34
2022-08-02T17:12:34.236Z,29.15
2022-08-02T17:15:08.930Z,28.93
2022-08-02T17:17:48.323Z,28.67
2022-08-02T17:20:15.386Z,28.44
2022-08-02T17:22:44.340Z,28.06
2022-08-02T17:25:13.597Z,27.90
2022-08-02T17:27:43.264Z,27.77
2022-08-02T17:30:11.507Z,27.63
2022-08-02T17:32:38.416Z,27.43
2022-08-02T17:35:06.956Z,27.29
2022-08-02T17:37:41.704Z,27.20
2022-08-02T17:40:09.799Z,27.02
2022-08-02T17:42:36.666Z,26.82
2022-08-02T17:45:16.257Z,26.57
2022-08-02T17:48:04.237Z,26.30
2022-08-02T17:50:32.665Z,26.05
2022-08-02T17:52:59.890Z,25.91
2022-08-02T17:55:26.968Z,25.80
2022-08-02T17:57:59.470Z,25.66
2022-08-02T18:00:35.077Z,25.53
2022-08-02T18:03:05.937Z,25.49
2022-08-02T18:05:55.045Z,25.36
2022-08-02T18:08:23.792Z,25.24
2022-08-02T18:10:52.924Z,25.06
2022-08-02T18:13:20.159Z,24.96
2022-08-02T18:15:47.739Z,24.77
2022-08-02T18:18:19.212Z,24.56
2022-08-02T18:20:57.303Z,24.49
2022-08-02T18:23:24.579Z,24.41
2022-08-02T18:25:55.172Z,24.35
2022-08-02T18:28:26.622Z,24.23
2022-08-02T18:30:53.992Z,24.23
2022-08-02T18:33:56.789Z,24.14
2022-08-02T18:36:10.773Z,24.04
2022-08-02T18:38:51.683Z,23.95
2022-08-02T18:41:19.254Z,23.91
2022-08-02T18:43:48.620Z,23.83
2022-08-02T18:46:17.315Z,23.76
2022-08-02T18:48:47.869Z,23.64
2022-08-02T18:51:18.997Z,23.60
2022-08-02T18:53:48.949Z,23.50
2022-08-02T18:56:19.723Z,23.45
2022-08-02T18:58:55.254Z,23.39
2022-08-02T19:01:33.453Z,23.29
2022-08-02T19:04:04.839Z,23.18
2022-08-02T19:06:32.464Z,23.07
2022-08-02T19:09:11.212Z,23.00
2022-08-02T19:11:47.426Z,22.87
2022-08-02T19:14:27.004Z,22.83
2022-08-02T19:16:54.570Z,22.67
2022-08-02T19:19:22.330Z,22.46
2022-08-02T19:22:17.352Z,22.28
2022-08-02T19:24:37.100Z,22.24
2022-08-02T19:27:09.023Z,22.18
2022-08-02T19:29:42.688Z,22.17
2022-08-02T19:32:40.134Z,22.07
2022-08-02T19:35:15.161Z,22.03
2022-08-02T19:37:51.124Z,21.90
2022-08-02T19:40:24.441Z,21.85
2022-08-02T19:43:05.313Z,21.66
2022-08-02T19:45:50.089Z,21.56
2022-08-02T19:48:23.418Z,21.48
2022-08-02T19:50:56.583Z,21.40
2022-08-02T19:56:20.360Z,21.22
2022-08-02T19:58:47.648Z,21.11
2022-08-02T20:01:16.861Z,20.97
2022-08-02T20:03:51.411Z,20.95
2022-08-02T20:06:20.279Z,20.95
2022-08-02T20:08:59.189Z,20.75
2022-08-02T20:11:29.197Z,20.65
2022-08-02T20:14:05.479Z,20.48
2022-08-02T20:16:37.529Z,20.42
2022-08-02T20:19:07.791Z,20.46
2022-08-02T20:21:37.632Z,20.35
2022-08-02T20:24:10.141Z,20.32
2022-08-02T20:26:47.612Z,20.31
2022-08-02T20:29:17.586Z,20.25
2022-08-02T20:32:04.547Z,20.18
2022-08-02T20:34:31.357Z,20.21
2022-08-02T20:37:00.607Z,20.16
2022-08-02T20:39:47.881Z,20.20
2022-08-02T20:42:23.697Z,20.21
2022-08-02T20:44:55.027Z,20.17
2022-08-02T20:47:28.421Z,20.11
2022-08-02T20:50:30.517Z,20.09
2022-08-02T20:53:03.136Z,19.94
2022-08-02T20:55:30.988Z,19.94
2022-08-02T20:58:01.103Z,19.82
2022-08-02T21:00:28.872Z,19.72
2022-08-02T21:02:55.739Z,19.55
2022-08-02T21:05:43.628Z,19.54
2022-08-02T21:08:14.198Z,19.47
2022-08-02T21:10:43.712Z,19.37
2022-08-02T21:13:18.842Z,19.27
2022-08-02T21:15:46.927Z,19.19
2022-08-02T21:18:14.595Z,19.12
2022-08-02T21:20:52.876Z,19.07
2022-08-02T21:23:20.053Z,19.00
2022-08-02T21:25:57.048Z,18.89
2022-08-02T21:28:35.050Z,18.81
2022-08-02T21:31:13.548Z,18.78
2022-08-02T21:33:56.790Z,18.75
2022-08-02T21:36:30.489Z,18.59
2022-08-02T21:38:58.384Z,18.51
2022-08-02T21:41:39.692Z,18.40
2022-08-02T21:44:12.234Z,18.44
2022-08-02T21:46:39.147Z,18.31
2022-08-02T21:49:06.072Z,18.28
2022-08-02T21:51:34.266Z,18.33
2022-08-02T21:54:18.281Z,18.21
2022-08-02T21:56:52.148Z,18.12
2022-08-02T22:02:11.632Z,18.04
2022-08-02T22:04:38.379Z,18.08
2022-08-02T22:07:05.192Z,18.00
2022-08-02T22:09:43.419Z,17.89
2022-08-02T22:12:18.319Z,17.91
2022-08-02T22:17:52.970Z,17.87
2022-08-02T22:20:21.483Z,17.76
2022-08-02T22:22:52.712Z,17.59
2022-08-02T22:25:26.766Z,17.51
2022-08-02T22:28:35.652Z,17.39
2022-08-02T22:30:52.811Z,17.30
2022-08-02T22:33:42.005Z,17.25
2022-08-02T22:36:13.369Z,17.18
2022-08-02T22:38:44.367Z,17.10
2022-08-02T22:41:13.553Z,16.98
2022-08-02T22:43:41.523Z,16.97
2022-08-02T22:46:09.129Z,16.92
2022-08-02T22:48:36.018Z,16.86
2022-08-02T22:51:08.199Z,16.83
2022-08-02T22:53:35.671Z,16.89
2022-08-02T22:56:04.317Z,16.89
2022-08-02T22:58:32.038Z,16.91
2022-08-02T22:59:03.937Z,18.11
2022-08-02T22:59:04.405Z,17.93
2022-08-02T22:59:07.275Z,21.33
2022-08-02T23:00:58.911Z,16.91
2022-08-02T23:03:25.832Z,16.97
2022-08-02T23:05:52.872Z,16.97
2022-08-02T23:08:19.963Z,17.00
2022-08-02T23:10:46.785Z,16.92
2022-08-02T23:13:13.793Z,16.87
2022-08-02T23:16:00.685Z,16.82
2022-08-02T23:18:47.004Z,16.87
2022-08-02T23:21:14.381Z,16.89
2022-08-02T23:24:01.795Z,16.92
2022-08-02T23:26:29.005Z,16.89
2022-08-02T23:28:56.139Z,16.91
2022-08-02T23:31:33.960Z,16.94
2022-08-02T23:34:06.005Z,16.88
2022-08-02T23:36:34.100Z,16.78
2022-08-02T23:39:01.090Z,16.72
2022-08-02T23:41:27.979Z,16.62
2022-08-02T23:44:12.489Z,16.48
2022-08-02T23:46:52.296Z,16.41
2022-08-02T23:49:25.618Z,16.25
2022-08-02T23:51:54.031Z,16.18
2022-08-02T23:54:24.264Z,16.08
2022-08-02T23:56:51.784Z,15.94
2022-08-02T23:59:18.648Z,15.90
